Time;durP1;ratioP1;P1;durP2;ratioP2;P2;SDS_P1;SDS_P2;PMS_P1;PMS_P2;Temp;Humidity;BMP_temperature;BMP_pressure;BME280_temperature;BME280_humidity;BME280_pressure;Samples;Min_cycle;Max_cycle;Signal;HPM_P1;HPM_P2
2022/05/08 00:00:23;;;;;;;27.67;15.35;;;;;;;;;;5048859;28;20658;-72
2022/05/08 00:02:52;;;;;;;27.55;15.45;;;;;;;;;;5048385;28;20020;-71
2022/05/08 00:05:18;;;;;;;28.17;16.58;;;;;;;;;;5047821;28;20756;-72
2022/05/08 00:07:43;;;;;;;32.00;16.95;;;;;;;;;;5049625;28;20025;-72
2022/05/08 00:10:08;;;;;;;28.37;16.50;;;;;;;;;;5048681;28;20032;-72
2022/05/08 00:12:34;;;;;;;28.52;17.25;;;;;;;;;;5047058;28;20412;-72
2022/05/08 00:14:59;;;;;;;28.03;15.50;;;;;;;;;;5045786;28;20039;-71
2022/05/08 00:17:24;;;;;;;27.13;15.30;;;;;;;;;;5049041;28;20276;-71
2022/05/08 00:19:49;;;;;;;27.57;14.60;;;;;;;;;;5047391;28;20272;-71
2022/05/08 00:22:14;;;;;;;25.25;14.32;;;;;;;;;;5048632;28;20272;-71
2022/05/08 00:24:40;;;;;;;29.77;16.07;;;;;;;;;;5047763;28;20017;-72
2022/05/08 00:27:05;;;;;;;26.95;16.08;;;;;;;;;;5047982;28;20270;-71
2022/05/08 00:29:31;;;;;;;29.55;15.77;;;;;;;;;;5048427;28;20106;-71
2022/05/08 00:31:56;;;;;;;25.90;16.03;;;;;;;;;;5049077;28;20032;-71
2022/05/08 00:34:21;;;;;;;24.88;16.23;;;;;;;;;;5048409;28;20830;-72
2022/05/08 00:36:46;;;;;;;29.63;16.55;;;;;;;;;;5046755;28;20943;-71
2022/05/08 00:39:12;;;;;;;33.17;17.97;;;;;;;;;;5047965;28;20465;-71
2022/05/08 00:41:37;;;;;;;35.28;18.10;;;;;;;;;;5047421;28;20275;-71
2022/05/08 00:44:03;;;;;;;38.85;19.30;;;;;;;;;;5048989;28;20099;-71
2022/05/08 00:46:29;;;;;;;36.38;19.38;;;;;;;;;;5043587;28;20525;-71
2022/05/08 00:48:55;;;;;;;37.67;20.00;;;;;;;;;;5045851;28;20053;-71
2022/05/08 00:51:20;;;;;;;58.15;21.35;;;;;;;;;;5048024;28;20025;-71
2022/05/08 00:53:46;;;;;;;38.92;21.63;;;;;;;;;;5049684;28;20029;-71
2022/05/08 00:56:12;;;;;;;39.08;20.85;;;;;;;;;;5047135;28;20028;-72
2022/05/08 00:58:38;;;;;;;34.50;20.90;;;;;;;;;;5030186;28;20075;-71
2022/05/08 01:01:04;;;;;;;36.95;21.73;;;;;;;;;;5048252;28;20017;-71
2022/05/08 01:03:29;;;;;;;40.35;22.13;;;;;;;;;;5053592;28;20009;-71
2022/05/08 01:05:55;;;;;;;37.03;20.13;;;;;;;;;;5050749;28;20024;-71
2022/05/08 01:08:23;;;;;;;37.63;21.98;;;;;;;;;;5050208;28;20033;-71
2022/05/08 01:10:49;;;;;;;36.13;21.17;;;;;;;;;;5051433;28;20028;-71
2022/05/08 01:13:14;;;;;;;38.15;21.75;;;;;;;;;;5052549;28;20047;-71
2022/05/08 01:15:41;;;;;;;39.88;22.33;;;;;;;;;;5049977;28;20060;-71
2022/05/08 01:18:06;;;;;;;41.80;22.80;;;;;;;;;;5051501;28;20027;-71
2022/05/08 01:20:32;;;;;;;41.38;23.02;;;;;;;;;;5049508;28;20021;-72
2022/05/08 01:22:57;;;;;;;37.67;22.60;;;;;;;;;;5050677;28;20025;-71
2022/05/08 01:25:22;;;;;;;36.57;21.97;;;;;;;;;;5049862;28;20025;-71
2022/05/08 01:27:47;;;;;;;34.45;21.30;;;;;;;;;;5052006;28;20275;-71
2022/05/08 01:30:12;;;;;;;45.30;26.20;;;;;;;;;;5051094;28;20039;-71
2022/05/08 01:32:38;;;;;;;41.60;24.42;;;;;;;;;;5051845;28;20279;-71
2022/05/08 01:35:03;;;;;;;37.78;23.50;;;;;;;;;;5051095;28;20029;-71
2022/05/08 01:37:28;;;;;;;42.58;25.45;;;;;;;;;;5052635;28;20082;-71
2022/05/08 01:39:55;;;;;;;39.90;24.03;;;;;;;;;;5051028;28;20021;-71
2022/05/08 01:42:20;;;;;;;44.38;26.60;;;;;;;;;;5051042;28;20272;-71
2022/05/08 01:44:45;;;;;;;46.83;26.47;;;;;;;;;;5050564;28;20021;-71
2022/05/08 01:49:54;;;;;;;47.72;25.48;;;;;;;;;;5050410;28;22155;-71
2022/05/08 01:52:19;;;;;;;42.40;25.57;;;;;;;;;;5050765;28;20033;-71
2022/05/08 01:54:44;;;;;;;42.37;24.97;;;;;;;;;;5050354;28;20374;-72
2022/05/08 01:57:09;;;;;;;45.88;25.70;;;;;;;;;;5050795;28;20286;-71
2022/05/08 01:59:35;;;;;;;40.67;25.40;;;;;;;;;;5050097;28;20032;-71
2022/05/08 02:02:00;;;;;;;47.47;25.90;;;;;;;;;;5050226;28;20295;-69
2022/05/08 02:04:25;;;;;;;48.67;27.05;;;;;;;;;;5050810;28;20902;-69
2022/05/08 02:06:50;;;;;;;42.97;25.15;;;;;;;;;;5050598;28;20029;-69
2022/05/08 02:09:15;;;;;;;42.30;24.60;;;;;;;;;;5051365;28;20036;-69
2022/05/08 02:11:41;;;;;;;42.53;25.35;;;;;;;;;;5050744;28;20533;-69
2022/05/08 02:14:06;;;;;;;45.10;24.83;;;;;;;;;;5049387;28;20082;-69
2022/05/08 02:16:32;;;;;;;43.05;24.05;;;;;;;;;;5049970;28;20358;-69
2022/05/08 02:18:57;;;;;;;40.63;23.30;;;;;;;;;;5050210;28;20515;-69
2022/05/08 02:21:23;;;;;;;34.07;21.37;;;;;;;;;;5049054;28;20025;-69
2022/05/08 02:23:48;;;;;;;44.05;23.02;;;;;;;;;;5049255;28;20264;-69
2022/05/08 02:26:13;;;;;;;35.00;21.13;;;;;;;;;;5048632;28;20024;-69
2022/05/08 02:28:39;;;;;;;39.13;21.60;;;;;;;;;;5050565;28;20358;-69
2022/05/08 02:31:05;;;;;;;40.42;23.08;;;;;;;;;;5050255;28;20311;-69
2022/05/08 02:33:30;;;;;;;38.53;20.52;;;;;;;;;;5051146;28;20027;-69
2022/05/08 02:35:55;;;;;;;42.45;22.05;;;;;;;;;;5051078;28;20462;-69
2022/05/08 02:38:21;;;;;;;41.27;21.57;;;;;;;;;;5051460;28;20374;-69
2022/05/08 02:40:46;;;;;;;33.78;19.63;;;;;;;;;;5050926;28;20280;-69
2022/05/08 02:43:11;;;;;;;36.93;20.87;;;;;;;;;;5049875;28;20095;-69
2022/05/08 02:45:36;;;;;;;41.50;20.27;;;;;;;;;;5050333;28;20294;-69
2022/05/08 02:48:01;;;;;;;38.97;20.80;;;;;;;;;;5049565;28;20278;-69
2022/05/08 02:50:27;;;;;;;41.42;20.38;;;;;;;;;;5049595;28;20771;-69
2022/05/08 02:52:52;;;;;;;35.07;19.53;;;;;;;;;;5048642;28;20029;-69
2022/05/08 03:00:45;;;;;;;38.15;19.23;;;;;;;;;;5049442;28;20039;-69
2022/05/08 03:03:11;;;;;;;29.42;17.55;;;;;;;;;;5047854;28;20548;-69
2022/05/08 03:05:36;;;;;;;30.63;18.75;;;;;;;;;;5050178;28;20129;-69
2022/05/08 03:08:02;;;;;;;39.10;20.50;;;;;;;;;;5051236;28;20385;-69
2022/05/08 03:10:28;;;;;;;35.25;20.00;;;;;;;;;;5047596;28;20017;-69
2022/05/08 03:12:53;;;;;;;35.67;19.70;;;;;;;;;;5050286;28;20378;-69
2022/05/08 03:15:18;;;;;;;34.13;17.60;;;;;;;;;;5048384;28;20037;-69
2022/05/08 03:17:44;;;;;;;29.07;17.97;;;;;;;;;;5048605;28;20031;-69
2022/05/08 03:20:10;;;;;;;32.90;18.63;;;;;;;;;;5049380;28;20766;-69
2022/05/08 03:22:35;;;;;;;35.60;19.50;;;;;;;;;;5050526;28;20052;-69
2022/05/08 03:25:00;;;;;;;32.90;18.45;;;;;;;;;;5049164;28;20044;-69
2022/05/08 03:27:25;;;;;;;35.00;19.40;;;;;;;;;;5048110;28;20461;-70
2022/05/08 03:29:51;;;;;;;40.60;18.30;;;;;;;;;;5048476;28;20270;-69
2022/05/08 03:32:16;;;;;;;33.53;18.35;;;;;;;;;;5048957;28;20801;-69
2022/05/08 03:34:41;;;;;;;32.00;18.75;;;;;;;;;;5048859;28;20107;-69
2022/05/08 03:37:06;;;;;;;33.83;18.20;;;;;;;;;;5050112;28;20021;-69
2022/05/08 03:39:31;;;;;;;29.43;17.17;;;;;;;;;;5048779;28;20647;-69
2022/05/08 03:41:57;;;;;;;27.30;16.00;;;;;;;;;;5049104;28;20315;-69
2022/05/08 03:44:22;;;;;;;29.40;16.87;;;;;;;;;;5048068;28;20290;-69
2022/05/08 03:46:47;;;;;;;34.95;16.98;;;;;;;;;;5047860;28;20274;-69
2022/05/08 03:49:12;;;;;;;27.27;15.77;;;;;;;;;;5048804;28;20039;-69
2022/05/08 03:51:37;;;;;;;24.83;15.37;;;;;;;;;;5049304;28;20048;-69
2022/05/08 03:54:05;;;;;;;30.43;15.20;;;;;;;;;;5048487;28;20279;-69
2022/05/08 03:56:30;;;;;;;43.90;15.15;;;;;;;;;;5046546;28;20278;-69
2022/05/08 03:58:56;;;;;;;30.00;15.37;;;;;;;;;;5047560;28;20017;-69
2022/05/08 04:01:21;;;;;;;29.57;14.90;;;;;;;;;;5047937;28;20345;-71
2022/05/08 04:03:46;;;;;;;27.20;14.87;;;;;;;;;;5046473;28;20289;-69
2022/05/08 04:06:11;;;;;;;29.97;15.17;;;;;;;;;;5048771;28;20345;-69
2022/05/08 04:08:36;;;;;;;35.10;15.47;;;;;;;;;;5049935;28;20282;-69
2022/05/08 04:11:02;;;;;;;34.88;14.00;;;;;;;;;;5047902;28;20419;-69
2022/05/08 04:13:27;;;;;;;27.00;13.43;;;;;;;;;;5048601;28;20408;-69
2022/05/08 04:18:36;;;;;;;30.00;14.60;;;;;;;;;;5047726;28;20090;-69
2022/05/08 04:21:01;;;;;;;23.58;13.93;;;;;;;;;;5048245;28;20021;-69
2022/05/08 04:26:10;;;;;;;33.33;13.45;;;;;;;;;;5047972;28;20048;-69
2022/05/08 04:28:35;;;;;;;32.83;14.10;;;;;;;;;;5049796;28;20485;-70
2022/05/08 04:31:00;;;;;;;24.37;14.57;;;;;;;;;;5048204;28;20282;-70
2022/05/08 04:33:26;;;;;;;23.40;13.97;;;;;;;;;;5048058;28;20656;-70
2022/05/08 04:35:51;;;;;;;30.50;13.65;;;;;;;;;;5048774;28;20268;-70
2022/05/08 04:38:16;;;;;;;25.83;13.85;;;;;;;;;;5053600;28;20032;-70
2022/05/08 04:40:41;;;;;;;28.00;13.77;;;;;;;;;;5052537;28;20024;-70
2022/05/08 04:43:07;;;;;;;27.88;14.48;;;;;;;;;;5052887;28;20017;-70
2022/05/08 04:45:32;;;;;;;28.13;13.80;;;;;;;;;;5050866;28;20052;-70
2022/05/08 04:47:57;;;;;;;26.07;14.50;;;;;;;;;;5052445;28;20396;-70
2022/05/08 04:50:22;;;;;;;24.10;14.40;;;;;;;;;;5052345;28;20315;-70
2022/05/08 04:52:47;;;;;;;30.45;14.45;;;;;;;;;;5051696;28;20267;-70
2022/05/08 04:55:12;;;;;;;23.47;13.93;;;;;;;;;;5051463;28;20082;-70
2022/05/08 04:57:38;;;;;;;30.03;14.93;;;;;;;;;;5049990;28;20627;-70
2022/05/08 05:00:04;;;;;;;30.35;15.10;;;;;;;;;;5052004;28;20275;-70
2022/05/08 05:02:29;;;;;;;28.48;16.33;;;;;;;;;;5053091;28;20024;-70
2022/05/08 05:04:54;;;;;;;28.85;15.95;;;;;;;;;;5052089;28;20040;-70
2022/05/08 05:07:19;;;;;;;26.85;15.75;;;;;;;;;;5051787;28;20025;-70
2022/05/08 05:09:44;;;;;;;27.47;15.87;;;;;;;;;;5050843;28;20102;-70
2022/05/08 05:12:10;;;;;;;26.95;14.90;;;;;;;;;;5050203;28;20578;-70
2022/05/08 05:14:35;;;;;;;32.80;16.88;;;;;;;;;;5036156;28;20120;-70
2022/05/08 05:17:00;;;;;;;26.90;15.55;;;;;;;;;;5051728;28;20412;-70
2022/05/08 05:19:28;;;;;;;32.70;15.47;;;;;;;;;;5050842;28;20370;-70
2022/05/08 05:21:54;;;;;;;35.45;15.57;;;;;;;;;;5050610;28;20313;-70
2022/05/08 05:24:19;;;;;;;31.42;14.82;;;;;;;;;;5051755;28;20200;-70
2022/05/08 05:26:44;;;;;;;28.23;14.57;;;;;;;;;;5052016;28;20024;-70
2022/05/08 05:29:09;;;;;;;26.73;15.07;;;;;;;;;;5050693;28;20267;-70
2022/05/08 05:34:02;;;;;;;31.10;15.80;;;;;;;;;;5068392;28;20102;-64
2022/05/08 05:36:27;;;;;;;31.83;15.60;;;;;;;;;;5070937;28;20036;-66
2022/05/08 05:38:52;;;;;;;30.05;17.67;;;;;;;;;;5071464;28;20290;-67
2022/05/08 05:41:17;;;;;;;37.88;16.25;;;;;;;;;;5071711;28;20020;-67
2022/05/08 05:43:43;;;;;;;37.67;16.70;;;;;;;;;;5072224;28;20111;-67
2022/05/08 05:48:52;;;;;;;32.25;15.38;;;;;;;;;;5070838;28;20050;-66
2022/05/08 05:51:17;;;;;;;29.80;15.43;;;;;;;;;;5069810;28;20536;-67
2022/05/08 05:53:42;;;;;;;38.97;16.27;;;;;;;;;;5071694;28;20323;-67
2022/05/08 05:56:09;;;;;;;30.00;15.15;;;;;;;;;;5070036;28;20293;-67
2022/05/08 05:58:34;;;;;;;30.85;16.25;;;;;;;;;;5070070;28;20024;-67
2022/05/08 06:01:00;;;;;;;37.13;16.40;;;;;;;;;;5069234;28;20020;-67
2022/05/08 06:03:25;;;;;;;31.67;17.40;;;;;;;;;;5071500;28;20024;-66
2022/05/08 06:05:50;;;;;;;28.50;16.70;;;;;;;;;;5066501;28;20375;-67
2022/05/08 06:08:15;;;;;;;29.50;17.03;;;;;;;;;;5071063;28;20266;-66
2022/05/08 06:10:40;;;;;;;34.80;16.40;;;;;;;;;;5070887;28;20370;-66
2022/05/08 06:13:05;;;;;;;29.27;16.25;;;;;;;;;;5071197;28;20442;-66
2022/05/08 06:15:31;;;;;;;29.77;16.17;;;;;;;;;;5069512;28;20016;-67
2022/05/08 06:17:56;;;;;;;36.17;15.97;;;;;;;;;;5068157;28;20742;-66
2022/05/08 06:20:21;;;;;;;34.33;16.40;;;;;;;;;;5064730;28;20283;-66
2022/05/08 06:22:46;;;;;;;31.50;15.27;;;;;;;;;;5069866;28;20879;-67
2022/05/08 06:25:12;;;;;;;26.57;15.47;;;;;;;;;;5066577;28;20351;-67
2022/05/08 06:27:37;;;;;;;30.17;15.70;;;;;;;;;;5068008;28;20303;-67
2022/05/08 06:30:02;;;;;;;32.58;15.25;;;;;;;;;;5067374;28;20369;-67
2022/05/08 06:32:28;;;;;;;30.30;14.40;;;;;;;;;;5069290;28;20103;-64
2022/05/08 06:34:53;;;;;;;29.63;15.00;;;;;;;;;;5067702;28;20020;-64
2022/05/08 06:37:18;;;;;;;28.55;14.70;;;;;;;;;;5068686;28;20776;-66
2022/05/08 06:39:43;;;;;;;31.40;14.97;;;;;;;;;;5070125;28;20480;-66
2022/05/08 06:42:08;;;;;;;28.05;14.48;;;;;;;;;;5066518;28;20283;-66
2022/05/08 06:44:34;;;;;;;25.42;13.85;;;;;;;;;;5066496;28;20026;-66
2022/05/08 06:46:59;;;;;;;33.83;14.53;;;;;;;;;;5065421;28;20213;-66
2022/05/08 06:49:24;;;;;;;27.27;14.38;;;;;;;;;;5067866;28;20283;-65
2022/05/08 06:51:49;;;;;;;23.42;12.52;;;;;;;;;;5065262;28;20834;-66
2022/05/08 06:54:14;;;;;;;24.35;11.98;;;;;;;;;;5067823;28;20030;-66
2022/05/08 06:56:41;;;;;;;25.53;9.83;;;;;;;;;;5066955;28;20028;-66
2022/05/08 07:01:50;;;;;;;25.35;11.43;;;;;;;;;;5065597;28;20028;-66
2022/05/08 07:04:15;;;;;;;26.52;11.27;;;;;;;;;;5064362;28;20012;-66
2022/05/08 07:06:40;;;;;;;24.27;12.20;;;;;;;;;;5062942;28;20020;-66
2022/05/08 07:09:07;;;;;;;32.95;12.48;;;;;;;;;;5067631;28;20150;-67
2022/05/08 07:11:32;;;;;;;20.77;11.05;;;;;;;;;;5067254;28;20024;-67
2022/05/08 07:13:57;;;;;;;20.73;10.68;;;;;;;;;;5062844;28;20017;-66
2022/05/08 07:16:23;;;;;;;30.75;12.90;;;;;;;;;;5067329;28;20496;-66
2022/05/08 07:18:48;;;;;;;24.08;10.60;;;;;;;;;;5066227;28;21627;-67
2022/05/08 07:21:13;;;;;;;20.80;10.23;;;;;;;;;;5066968;28;20020;-67
2022/05/08 07:23:38;;;;;;;22.30;11.20;;;;;;;;;;5067032;28;20266;-66
2022/05/08 07:26:03;;;;;;;30.27;10.38;;;;;;;;;;5066043;28;20294;-66
2022/05/08 07:28:29;;;;;;;23.73;10.63;;;;;;;;;;5067275;28;20484;-66
2022/05/08 07:30:54;;;;;;;27.90;12.10;;;;;;;;;;5066917;28;20518;-66
2022/05/08 07:33:20;;;;;;;16.58;9.65;;;;;;;;;;5068548;28;20028;-66
2022/05/08 07:38:29;;;;;;;36.60;12.43;;;;;;;;;;5067215;28;20035;-66
2022/05/08 07:40:55;;;;;;;21.50;9.07;;;;;;;;;;5065173;28;20024;-67
2022/05/08 07:43:20;;;;;;;25.58;9.95;;;;;;;;;;5066970;28;20127;-66
2022/05/08 07:45:45;;;;;;;22.23;10.43;;;;;;;;;;5066822;28;20626;-66
2022/05/08 07:48:11;;;;;;;23.17;9.07;;;;;;;;;;5066813;28;20278;-66
2022/05/08 07:50:36;;;;;;;19.40;8.25;;;;;;;;;;5066705;28;20031;-66
2022/05/08 07:53:01;;;;;;;19.90;9.07;;;;;;;;;;5066981;28;20026;-66
2022/05/08 07:55:26;;;;;;;19.33;8.37;;;;;;;;;;5051387;28;20270;-66
2022/05/08 07:57:51;;;;;;;24.30;9.20;;;;;;;;;;5066191;28;20271;-66
2022/05/08 08:00:17;;;;;;;18.10;8.17;;;;;;;;;;5067525;28;20033;-66
2022/05/08 08:02:42;;;;;;;20.35;8.75;;;;;;;;;;5064534;28;20275;-66
2022/05/08 08:05:08;;;;;;;18.73;8.70;;;;;;;;;;5067999;28;20024;-66
2022/05/08 08:07:33;;;;;;;19.33;8.90;;;;;;;;;;5065494;28;20267;-66
2022/05/08 08:09:58;;;;;;;19.88;9.85;;;;;;;;;;5066381;28;20016;-66
2022/05/08 08:12:24;;;;;;;25.65;10.13;;;;;;;;;;5064901;28;20059;-66
2022/05/08 08:14:49;;;;;;;24.90;9.63;;;;;;;;;;5064433;28;20020;-66
2022/05/08 08:17:14;;;;;;;23.30;9.25;;;;;;;;;;5063564;28;20288;-66
2022/05/08 08:19:39;;;;;;;22.25;8.57;;;;;;;;;;5066766;28;20035;-66
2022/05/08 08:22:05;;;;;;;30.85;8.48;;;;;;;;;;5067139;28;20024;-66
2022/05/08 08:24:30;;;;;;;23.40;8.82;;;;;;;;;;5066487;28;20051;-66
2022/05/08 08:26:55;;;;;;;23.20;8.75;;;;;;;;;;5067322;28;20088;-66
2022/05/08 08:29:20;;;;;;;24.65;8.65;;;;;;;;;;5067760;28;20032;-66
2022/05/08 08:31:46;;;;;;;22.40;8.50;;;;;;;;;;5065164;28;20502;-66
2022/05/08 08:34:11;;;;;;;25.00;9.30;;;;;;;;;;5065211;28;20274;-66
2022/05/08 08:36:36;;;;;;;25.30;9.40;;;;;;;;;;5066800;28;20361;-67
2022/05/08 08:39:01;;;;;;;20.47;8.40;;;;;;;;;;5067667;28;20846;-66
2022/05/08 08:41:27;;;;;;;23.30;8.35;;;;;;;;;;5066108;28;20274;-67
2022/05/08 08:49:22;;;;;;;19.27;8.13;;;;;;;;;;5063974;28;20396;-66
2022/05/08 08:51:48;;;;;;;26.10;8.93;;;;;;;;;;5062289;28;20025;-67
2022/05/08 08:54:14;;;;;;;18.92;7.15;;;;;;;;;;5066510;28;20496;-67
2022/05/08 08:56:40;;;;;;;17.83;8.25;;;;;;;;;;5067042;28;20029;-67
2022/05/08 08:59:05;;;;;;;23.13;7.20;;;;;;;;;;5066329;28;20017;-67
2022/05/08 09:01:40;;;;;;;22.45;7.20;;;;;;;;;;5066035;28;20021;-68
2022/05/08 09:04:05;;;;;;;23.40;7.82;;;;;;;;;;5065443;28;20461;-67
2022/05/08 09:06:40;;;;;;;26.35;7.75;;;;;;;;;;5062976;28;20030;-67
2022/05/08 09:09:21;;;;;;;17.30;7.15;;;;;;;;;;5060462;28;20029;-66
2022/05/08 09:11:46;;;;;;;;;;;;;;;;;;5061843;28;20035;-65
2022/05/08 09:14:25;;;;;;;15.25;6.32;;;;;;;;;;5062843;28;19991;-65
2022/05/08 09:16:51;;;;;;;15.82;6.13;;;;;;;;;;5053476;28;20029;-65
2022/05/08 09:19:28;;;;;;;16.20;6.40;;;;;;;;;;5052541;28;20031;-65
2022/05/08 09:21:57;;;;;;;17.50;5.68;;;;;;;;;;5070681;28;20421;-66
2022/05/08 09:24:22;;;;;;;12.48;5.80;;;;;;;;;;5072159;28;20021;-66
2022/05/08 09:26:50;;;;;;;9.47;5.50;;;;;;;;;;5077121;28;20073;-66
2022/05/08 09:29:21;;;;;;;14.27;5.40;;;;;;;;;;5073988;28;20716;-65
2022/05/08 09:31:46;;;;;;;12.85;5.35;;;;;;;;;;5062569;28;20316;-65
2022/05/08 09:34:12;;;;;;;16.57;6.63;;;;;;;;;;5059627;28;20062;-65
2022/05/08 09:36:37;;;;;;;12.80;4.18;;;;;;;;;;5062555;28;20278;-66
2022/05/08 09:39:03;;;;;;;12.77;4.03;;;;;;;;;;5061711;28;20027;-66
2022/05/08 09:41:38;;;;;;;12.30;4.18;;;;;;;;;;5062385;28;20012;-65
2022/05/08 09:44:10;;;;;;;12.18;4.40;;;;;;;;;;5060015;28;20437;-65
2022/05/08 09:46:36;;;;;;;14.05;4.63;;;;;;;;;;5061799;28;20016;-66
2022/05/08 09:49:02;;;;;;;10.20;4.18;;;;;;;;;;5061259;28;20114;-65
2022/05/08 09:51:27;;;;;;;12.35;4.75;;;;;;;;;;5060763;28;20031;-66
2022/05/08 09:53:53;;;;;;;16.92;4.82;;;;;;;;;;5059324;28;20024;-66
2022/05/08 09:56:18;;;;;;;11.65;4.03;;;;;;;;;;5061679;28;20028;-66
2022/05/08 09:58:44;;;;;;;12.40;3.80;;;;;;;;;;5061643;28;20112;-66
2022/05/08 10:01:09;;;;;;;15.57;3.63;;;;;;;;;;5061082;28;20423;-66
2022/05/08 10:03:35;;;;;;;10.15;3.35;;;;;;;;;;5060626;28;20471;-66
2022/05/08 10:06:00;;;;;;;10.40;3.15;;;;;;;;;;5060480;28;20039;-66
2022/05/08 10:08:27;;;;;;;7.07;3.15;;;;;;;;;;5061598;28;20048;-66
2022/05/08 10:13:56;;;;;;;15.07;3.55;;;;;;;;;;5061736;28;20042;-65
2022/05/08 10:16:40;;;;;;;13.05;3.47;;;;;;;;;;5061515;28;20037;-65
2022/05/08 10:19:14;;;;;;;7.72;2.65;;;;;;;;;;5059238;28;20120;-66
2022/05/08 10:21:55;;;;;;;14.57;2.85;;;;;;;;;;5061218;28;20426;-65
2022/05/08 10:24:27;;;;;;;10.65;3.20;;;;;;;;;;5057641;28;20381;-66
2022/05/08 10:27:11;;;;;;;10.00;3.53;;;;;;;;;;5064764;28;20008;-66
2022/05/08 10:29:39;;;;;;;9.20;3.25;;;;;;;;;;5061288;28;20020;-67
2022/05/08 10:32:06;;;;;;;11.00;2.75;;;;;;;;;;5063113;28;20473;-65
2022/05/08 10:34:35;;;;;;;10.32;2.33;;;;;;;;;;5066918;28;20099;-65
2022/05/08 10:37:20;;;;;;;5.30;2.03;;;;;;;;;;5060650;28;20017;-66
2022/05/08 10:39:48;;;;;;;7.75;1.83;;;;;;;;;;5059623;28;20120;-66
2022/05/08 10:42:29;;;;;;;5.85;1.60;;;;;;;;;;5063871;28;20021;-67
2022/05/08 10:44:54;;;;;;;10.10;3.30;;;;;;;;;;5064588;28;20024;-66
2022/05/08 10:47:32;;;;;;;7.43;1.95;;;;;;;;;;5062042;28;20024;-67
2022/05/08 10:49:57;;;;;;;10.02;2.15;;;;;;;;;;5060181;28;20527;-67
2022/05/08 10:52:22;;;;;;;6.60;2.10;;;;;;;;;;5059296;28;20115;-66
2022/05/08 10:54:57;;;;;;;11.37;2.83;;;;;;;;;;5069477;28;20047;-67
2022/05/08 10:57:32;;;;;;;11.70;2.70;;;;;;;;;;5061666;28;20111;-67
2022/05/08 10:59:59;;;;;;;7.45;2.08;;;;;;;;;;5067949;28;20060;-67
2022/05/08 11:02:43;;;;;;;9.52;2.55;;;;;;;;;;5068553;28;20071;-67
2022/05/08 11:05:12;;;;;;;8.65;2.50;;;;;;;;;;5065914;28;20481;-67
2022/05/08 11:07:38;;;;;;;10.88;2.33;;;;;;;;;;5062676;28;20090;-67
2022/05/08 11:10:13;;;;;;;9.85;2.42;;;;;;;;;;5064163;28;20052;-67
2022/05/08 11:12:53;;;;;;;10.55;2.50;;;;;;;;;;5067428;28;20035;-67
2022/05/08 11:15:18;;;;;;;9.60;2.55;;;;;;;;;;5067728;28;20024;-67
2022/05/08 11:17:45;;;;;;;8.80;2.03;;;;;;;;;;5067807;28;20020;-66
2022/05/08 11:20:14;;;;;;;9.15;2.45;;;;;;;;;;5069754;28;20024;-67
2022/05/08 11:22:53;;;;;;;12.55;3.38;;;;;;;;;;5052307;28;20048;-67
2022/05/08 11:25:18;;;;;;;8.20;2.03;;;;;;;;;;5067826;28;20020;-67
2022/05/08 11:27:49;;;;;;;11.37;2.30;;;;;;;;;;5068340;28;20028;-67
2022/05/08 11:30:14;;;;;;;5.20;1.65;;;;;;;;;;5063192;28;20387;-67
2022/05/08 11:38:14;;;;;;;6.28;1.52;;;;;;;;;;5058043;28;20527;-66
2022/05/08 11:40:40;;;;;;;6.83;1.87;;;;;;;;;;5058206;28;20024;-66
2022/05/08 11:43:05;;;;;;;11.75;2.30;;;;;;;;;;5057851;28;20020;-66
2022/05/08 11:45:31;;;;;;;10.38;1.85;;;;;;;;;;5058522;28;20064;-66
2022/05/08 11:47:56;;;;;;;5.22;1.90;;;;;;;;;;5059828;28;20629;-66
2022/05/08 11:50:21;;;;;;;12.00;2.33;;;;;;;;;;5061007;28;20012;-66
2022/05/08 11:52:46;;;;;;;7.67;2.20;;;;;;;;;;5064622;28;20255;-66
2022/05/08 11:55:12;;;;;;;9.32;2.28;;;;;;;;;;5042570;28;20282;-66
2022/05/08 11:57:44;;;;;;;7.80;1.67;;;;;;;;;;5063054;28;20017;-66
2022/05/08 12:00:10;;;;;;;6.10;2.13;;;;;;;;;;5064346;28;20027;-66
2022/05/08 12:02:42;;;;;;;4.40;1.80;;;;;;;;;;5059018;28;20457;-66
2022/05/08 12:05:18;;;;;;;6.10;1.63;;;;;;;;;;5043869;28;20126;-66
2022/05/08 12:07:45;;;;;;;9.90;2.35;;;;;;;;;;5058931;28;20125;-66
2022/05/08 12:10:10;;;;;;;6.07;2.10;;;;;;;;;;5060501;28;20431;-66
2022/05/08 12:12:37;;;;;;;7.28;1.80;;;;;;;;;;5057361;28;20104;-66
2022/05/08 12:15:06;;;;;;;9.30;1.85;;;;;;;;;;5058770;28;20099;-66
2022/05/08 12:17:51;;;;;;;6.65;2.00;;;;;;;;;;5058278;28;20017;-66
2022/05/08 12:20:19;;;;;;;7.18;1.65;;;;;;;;;;5057246;28;20028;-66
2022/05/08 12:22:46;;;;;;;8.85;2.42;;;;;;;;;;5058930;28;20116;-66
2022/05/08 12:25:12;;;;;;;13.98;2.13;;;;;;;;;;5056057;28;20101;-66
2022/05/08 12:27:37;;;;;;;5.97;1.90;;;;;;;;;;5059732;28;20099;-66
2022/05/08 12:30:03;;;;;;;9.43;2.10;;;;;;;;;;5057797;28;20413;-66
2022/05/08 12:32:28;;;;;;;16.02;2.40;;;;;;;;;;5044027;28;20360;-66
2022/05/08 12:34:54;;;;;;;5.60;1.90;;;;;;;;;;5060585;28;20070;-66
2022/05/08 12:37:20;;;;;;;12.35;2.08;;;;;;;;;;5063011;28;20357;-66
2022/05/08 12:39:45;;;;;;;12.93;2.63;;;;;;;;;;5066029;28;20024;-67
2022/05/08 12:42:11;;;;;;;10.20;2.42;;;;;;;;;;5064916;28;20383;-65
2022/05/08 12:44:36;;;;;;;13.77;1.70;;;;;;;;;;5068842;28;20099;-66
2022/05/08 12:47:03;;;;;;;14.38;1.75;;;;;;;;;;5067434;28;20027;-65
2022/05/08 12:49:28;;;;;;;10.38;2.38;;;;;;;;;;5065366;28;20032;-65
2022/05/08 12:51:53;;;;;;;7.70;1.90;;;;;;;;;;5068935;28;20394;-65
2022/05/08 12:54:18;;;;;;;14.33;1.70;;;;;;;;;;5064530;28;20376;-66
2022/05/08 12:56:44;;;;;;;6.53;1.90;;;;;;;;;;5058447;28;20270;-65
2022/05/08 13:01:53;;;;;;;8.50;1.83;;;;;;;;;;5063199;28;20028;-65
2022/05/08 13:04:18;;;;;;;8.43;2.03;;;;;;;;;;5061041;28;20020;-66
2022/05/08 13:06:43;;;;;;;4.67;1.73;;;;;;;;;;5061771;28;20487;-66
2022/05/08 13:09:09;;;;;;;5.47;1.23;;;;;;;;;;5070990;28;20021;-66
2022/05/08 13:11:35;;;;;;;5.53;1.40;;;;;;;;;;5072191;28;20278;-65
2022/05/08 13:14:00;;;;;;;5.30;1.42;;;;;;;;;;5072740;28;20104;-66
2022/05/08 13:16:25;;;;;;;5.90;1.52;;;;;;;;;;5070474;28;20036;-66
2022/05/08 13:18:50;;;;;;;12.32;1.70;;;;;;;;;;5068084;28;20028;-66
2022/05/08 13:21:16;;;;;;;11.33;2.03;;;;;;;;;;5072093;28;20062;-65
2022/05/08 13:23:41;;;;;;;5.43;1.38;;;;;;;;;;5071667;28;20854;-66
2022/05/08 13:26:06;;;;;;;6.40;1.33;;;;;;;;;;5071650;28;20025;-66
2022/05/08 13:28:33;;;;;;;6.50;1.73;;;;;;;;;;5071738;28;20023;-66
2022/05/08 13:30:58;;;;;;;11.52;1.40;;;;;;;;;;5069479;28;20302;-66
2022/05/08 13:33:27;;;;;;;5.65;1.48;;;;;;;;;;5070741;28;20063;-66
2022/05/08 13:35:53;;;;;;;6.05;1.38;;;;;;;;;;5072699;28;20023;-66
2022/05/08 13:38:20;;;;;;;3.80;1.40;;;;;;;;;;5072699;28;20104;-65
2022/05/08 13:40:45;;;;;;;6.53;1.30;;;;;;;;;;5072697;28;20524;-65
2022/05/08 13:43:11;;;;;;;4.67;1.13;;;;;;;;;;5072267;28;20103;-66
2022/05/08 13:45:36;;;;;;;4.17;1.30;;;;;;;;;;5071382;28;20271;-66
2022/05/08 13:48:01;;;;;;;6.30;1.50;;;;;;;;;;5069202;28;20744;-66
2022/05/08 13:50:26;;;;;;;5.23;1.33;;;;;;;;;;5071725;28;20363;-66
2022/05/08 13:52:51;;;;;;;3.42;1.25;;;;;;;;;;5071267;28;20270;-66
2022/05/08 13:55:17;;;;;;;21.92;1.10;;;;;;;;;;5071314;28;20389;-66
2022/05/08 13:57:43;;;;;;;3.28;1.00;;;;;;;;;;5072516;28;20176;-66
2022/05/08 14:00:14;;;;;;;5.15;1.10;;;;;;;;;;5070434;28;20388;-66
2022/05/08 14:02:39;;;;;;;4.65;0.93;;;;;;;;;;5065808;28;20012;-66
2022/05/08 14:05:04;;;;;;;4.40;1.70;;;;;;;;;;5070415;28;20787;-66
2022/05/08 14:07:30;;;;;;;6.57;1.25;;;;;;;;;;5071380;28;20503;-66
2022/05/08 14:09:55;;;;;;;7.10;1.10;;;;;;;;;;5069872;28;20427;-65
2022/05/08 14:12:21;;;;;;;2.53;1.00;;;;;;;;;;5070445;28;20093;-65
2022/05/08 14:14:46;;;;;;;5.68;0.80;;;;;;;;;;5070254;28;20016;-65
2022/05/08 14:17:11;;;;;;;5.70;1.57;;;;;;;;;;5068918;28;20027;-66
2022/05/08 14:19:36;;;;;;;6.10;1.27;;;;;;;;;;5071221;28;20730;-66
2022/05/08 14:22:01;;;;;;;3.83;1.47;;;;;;;;;;5071389;28;20297;-66
2022/05/08 14:24:27;;;;;;;6.82;1.52;;;;;;;;;;5072070;28;20024;-66
2022/05/08 14:26:52;;;;;;;6.37;1.00;;;;;;;;;;5072040;28;20016;-66
2022/05/08 14:29:17;;;;;;;10.17;1.53;;;;;;;;;;5053253;28;20283;-66
2022/05/08 14:37:10;;;;;;;5.43;1.40;;;;;;;;;;5068695;28;20079;-66
2022/05/08 14:39:35;;;;;;;6.10;1.80;;;;;;;;;;5071529;28;20048;-66
2022/05/08 14:42:00;;;;;;;5.40;1.20;;;;;;;;;;5071421;28;20724;-66
2022/05/08 14:44:25;;;;;;;12.30;1.33;;;;;;;;;;5069547;28;20032;-66
2022/05/08 14:46:50;;;;;;;7.33;1.37;;;;;;;;;;5067471;28;20266;-66
2022/05/08 14:49:16;;;;;;;4.77;1.07;;;;;;;;;;5070753;28;20266;-65
2022/05/08 14:51:41;;;;;;;5.87;1.13;;;;;;;;;;5070323;28;20271;-65
2022/05/08 14:54:06;;;;;;;4.60;1.42;;;;;;;;;;5069429;28;20499;-65
2022/05/08 14:56:32;;;;;;;11.13;3.03;;;;;;;;;;5070421;28;20392;-65
2022/05/08 14:58:57;;;;;;;6.68;1.25;;;;;;;;;;5071196;28;20638;-65
2022/05/08 15:01:22;;;;;;;5.90;1.23;;;;;;;;;;5070111;28;20020;-65
2022/05/08 15:03:48;;;;;;;4.90;1.70;;;;;;;;;;5068485;28;20058;-66
2022/05/08 15:06:13;;;;;;;5.65;1.35;;;;;;;;;;5069759;28;21059;-66